Time;durP1;ratioP1;P1;durP2;ratioP2;P2;SDS_P1;SDS_P2;PMS_P1;PMS_P2;Temp;Humidity;BMP_temperature;BMP_pressure;BME280_temperature;BME280_humidity;BME280_pressure;Samples;Min_cycle;Max_cycle;Signal;HPM_P1;HPM_P2
2021/03/29 00:02:07;;;;;;;9.07;4.93;;;;;;;13.15;44.76;101217.38;5040426;28;20029;-65
2021/03/29 00:04:32;;;;;;;13.93;6.10;;;;;;;13.30;44.71;101213.31;5039805;28;20104;-65
2021/03/29 00:07:01;;;;;;;13.25;6.65;;;;;;;13.25;45.28;101204.94;5040431;28;20286;-70
2021/03/29 00:09:31;;;;;;;19.80;9.40;;;;;;;13.26;45.68;101206.59;5038904;28;20045;-71
2021/03/29 00:12:00;;;;;;;18.45;7.82;;;;;;;13.37;45.45;101202.94;5039346;28;20052;-66
2021/03/29 00:14:27;;;;;;;14.77;6.95;;;;;;;13.35;45.34;101207.56;5041219;28;20250;-72
2021/03/29 00:16:52;;;;;;;10.30;6.10;;;;;;;13.23;45.64;101208.72;5041040;28;20041;-72
2021/03/29 00:19:18;;;;;;;12.32;6.15;;;;;;;13.32;44.91;101207.84;5039195;28;20017;-66
2021/03/29 00:21:45;;;;;;;11.23;6.18;;;;;;;13.34;45.36;101205.88;5040931;28;20029;-71
2021/03/29 00:24:10;;;;;;;10.65;6.10;;;;;;;13.39;45.27;101206.28;5038830;28;20083;-65
2021/03/29 00:26:37;;;;;;;12.05;6.40;;;;;;;13.44;44.84;101209.34;5040833;28;20092;-65
2021/03/29 00:29:03;;;;;;;10.43;6.32;;;;;;;13.37;44.82;101206.44;5040209;28;20083;-70
2021/03/29 00:31:30;;;;;;;13.80;6.47;;;;;;;13.17;45.61;101206.63;5040095;28;20112;-65
2021/03/29 00:33:56;;;;;;;11.98;6.78;;;;;;;12.93;45.63;101205.25;5040116;28;20037;-71
2021/03/29 00:36:24;;;;;;;14.05;6.78;;;;;;;12.98;45.51;101207.47;5039611;28;20124;-71
2021/03/29 00:38:54;;;;;;;13.57;7.22;;;;;;;12.92;45.90;101210.69;5040503;28;20038;-65
2021/03/29 00:41:21;;;;;;;11.80;5.85;;;;;;;12.97;45.35;101209.28;5039589;28;20413;-66
2021/03/29 00:43:49;;;;;;;9.82;6.03;;;;;;;12.86;45.21;101201.47;5039058;28;20052;-72
2021/03/29 00:46:17;;;;;;;9.00;6.05;;;;;;;12.89;44.75;101198.53;5040444;28;20071;-66
2021/03/29 00:48:44;;;;;;;11.45;5.97;;;;;;;12.95;44.96;101205.09;5038246;28;20296;-71
2021/03/29 00:51:12;;;;;;;10.13;5.45;;;;;;;12.99;44.84;101202.00;5039263;28;20017;-70
2021/03/29 00:53:40;;;;;;;8.88;5.20;;;;;;;13.20;44.20;101211.66;5040120;28;20107;-65
2021/03/29 00:56:07;;;;;;;9.55;5.28;;;;;;;13.29;43.42;101216.97;5039392;28;20049;-65
2021/03/29 00:58:34;;;;;;;9.25;5.75;;;;;;;13.14;43.69;101206.88;5039272;28;20277;-65
2021/03/29 01:01:09;;;;;;;13.48;6.47;;;;;;;13.16;44.02;101218.22;5044398;28;20064;-71
2021/03/29 01:03:37;;;;;;;12.55;5.97;;;;;;;13.10;43.61;101219.63;5042720;28;20037;-65
2021/03/29 01:06:15;;;;;;;11.25;5.30;;;;;;;12.83;44.04;101214.19;5042428;28;20075;-70
2021/03/29 01:08:42;;;;;;;12.55;5.57;;;;;;;13.01;44.23;101228.47;5042957;28;20386;-66
2021/03/29 01:11:12;;;;;;;11.90;5.80;;;;;;;12.88;44.12;101223.44;5043225;28;20041;-71
2021/03/29 01:13:45;;;;;;;9.93;5.40;;;;;;;12.85;44.29;101229.03;5043036;28;20034;-71
2021/03/29 01:16:13;;;;;;;11.00;6.35;;;;;;;13.16;43.84;101231.50;5043529;28;20067;-71
2021/03/29 01:18:42;;;;;;;12.02;6.30;;;;;;;12.98;43.95;101221.59;5042517;28;20033;-71
2021/03/29 01:21:28;;;;;;;9.27;5.78;;;;;;;13.06;44.45;101235.03;5042262;28;20105;-65
2021/03/29 01:24:01;;;;;;;11.85;6.35;;;;;;;13.13;44.02;101231.81;5041565;28;20044;-71
2021/03/29 01:26:40;;;;;;;13.15;6.00;;;;;;;13.04;44.61;101236.16;5042044;28;20052;-71
2021/03/29 01:29:08;;;;;;;11.95;6.18;;;;;;;13.10;44.10;101249.72;5041180;28;20120;-66
2021/03/29 01:31:34;;;;;;;21.83;7.03;;;;;;;12.78;44.83;101249.19;5043514;28;20335;-71
2021/03/29 01:34:00;;;;;;;17.08;7.88;;;;;;;12.68;45.42;101246.50;5042752;28;20039;-65
2021/03/29 01:36:29;;;;;;;12.68;5.70;;;;;;;12.72;44.96;101249.72;5043415;28;20053;-65
2021/03/29 01:38:56;;;;;;;10.18;5.45;;;;;;;12.70;45.33;101249.88;5042071;28;20036;-70
2021/03/29 01:41:22;;;;;;;10.57;5.75;;;;;;;12.58;45.78;101256.28;5042212;28;20218;-66
2021/03/29 01:43:48;;;;;;;12.95;5.93;;;;;;;12.78;46.16;101251.84;5042292;28;20052;-71
2021/03/29 01:46:15;;;;;;;9.00;5.43;;;;;;;12.78;45.27;101246.53;5042503;28;20025;-71
2021/03/29 01:48:41;;;;;;;10.38;5.15;;;;;;;12.83;45.11;101236.31;5042764;28;20109;-65
2021/03/29 01:51:07;;;;;;;11.48;6.13;;;;;;;12.78;45.42;101241.19;5042419;28;20268;-66
2021/03/29 01:53:33;;;;;;;16.40;5.93;;;;;;;12.80;45.33;101231.28;5042967;28;20033;-65
2021/03/29 01:55:59;;;;;;;12.02;5.53;;;;;;;12.82;45.54;101231.97;5041618;28;20457;-71
2021/03/29 01:58:25;;;;;;;10.23;5.57;;;;;;;12.93;44.64;101228.31;5041639;28;20030;-65
2021/03/29 02:01:03;;;;;;;11.70;5.00;;;;;;;12.95;44.66;101234.34;5042707;28;20201;-71
2021/03/29 02:03:30;;;;;;;10.00;6.00;;;;;;;12.93;45.13;101236.31;5061783;28;20047;-65
2021/03/29 02:05:56;;;;;;;11.93;5.53;;;;;;;12.90;45.07;101236.59;5062508;28;20113;-70
2021/03/29 02:08:24;;;;;;;14.75;6.65;;;;;;;12.97;45.44;101241.19;5042712;28;20057;-70
2021/03/29 02:10:51;;;;;;;13.43;6.43;;;;;;;12.94;45.32;101237.97;5040440;28;20323;-66
2021/03/29 02:13:23;;;;;;;15.60;6.47;;;;;;;13.03;45.23;101237.13;5044850;28;20270;-66
2021/03/29 02:15:55;;;;;;;16.65;7.25;;;;;;;13.16;44.72;101237.69;5041517;28;20065;-71
2021/03/29 02:18:27;;;;;;;11.43;6.20;;;;;;;13.11;44.63;101234.59;5040768;28;20105;-70
2021/03/29 02:20:59;;;;;;;14.40;5.75;;;;;;;13.23;43.91;101233.50;5041186;28;20382;-71
2021/03/29 02:23:26;;;;;;;12.70;5.60;;;;;;;13.07;44.64;101231.38;5045037;28;20083;-70
2021/03/29 02:25:52;;;;;;;12.88;5.80;;;;;;;13.08;44.54;101225.09;5041764;28;20037;-65
2021/03/29 02:28:18;;;;;;;10.85;5.30;;;;;;;13.21;43.92;101229.28;5041505;28;20044;-70
2021/03/29 02:30:46;;;;;;;8.93;5.43;;;;;;;13.27;43.21;101234.03;5042622;28;20037;-65
2021/03/29 02:33:14;;;;;;;9.43;4.95;;;;;;;13.00;43.71;101235.59;5041346;28;20315;-71
2021/03/29 02:35:40;;;;;;;11.80;4.78;;;;;;;12.98;43.51;101237.56;5040912;28;20034;-65
2021/03/29 02:38:07;;;;;;;11.57;5.20;;;;;;;12.88;43.79;101239.38;5041792;28;20049;-70
2021/03/29 02:40:34;;;;;;;10.20;4.60;;;;;;;12.78;43.38;101243.84;5041187;28;20045;-66
2021/03/29 02:43:02;;;;;;;10.70;4.55;;;;;;;12.70;44.43;101244.56;5041157;28;20033;-66
2021/03/29 02:45:31;;;;;;;9.15;4.72;;;;;;;12.65;44.76;101238.81;5042412;28;20044;-71
2021/03/29 02:48:02;;;;;;;9.95;4.38;;;;;;;12.59;44.14;101249.16;5040447;28;20330;-65
2021/03/29 02:50:29;;;;;;;9.85;4.85;;;;;;;12.56;44.23;101252.94;5040874;28;20029;-70
2021/03/29 02:53:01;;;;;;;10.02;4.50;;;;;;;12.34;44.98;101251.34;5043715;28;20037;-65
2021/03/29 02:55:28;;;;;;;10.15;4.40;;;;;;;12.28;45.31;101248.38;5045224;28;20030;-71
2021/03/29 02:57:57;;;;;;;11.38;5.07;;;;;;;12.19;44.87;101255.34;5059502;28;20335;-66
2021/03/29 03:00:24;;;;;;;9.55;4.22;;;;;;;12.11;44.40;101249.88;5051029;28;20030;-70
2021/03/29 03:02:51;;;;;;;10.05;4.70;;;;;;;12.01;44.84;101257.81;5043816;28;20059;-65
2021/03/29 03:05:19;;;;;;;10.38;4.10;;;;;;;11.96;44.86;101257.38;5040580;28;20374;-65
2021/03/29 03:07:45;;;;;;;6.45;3.85;;;;;;;11.85;45.29;101248.66;5041241;28;20045;-65
2021/03/29 03:10:14;;;;;;;9.90;4.40;;;;;;;11.64;44.86;101252.19;5040028;28;20029;-66
2021/03/29 03:12:44;;;;;;;8.70;3.80;;;;;;;11.54;45.11;101250.44;5040349;28;20076;-71
2021/03/29 03:15:15;;;;;;;11.98;4.10;;;;;;;11.40;45.10;101249.78;5041244;28;20195;-71
2021/03/29 03:17:41;;;;;;;4.72;3.05;;;;;;;11.24;45.24;101249.41;5043410;28;20104;-70
2021/03/29 03:20:10;;;;;;;5.50;3.55;;;;;;;11.30;45.33;101253.34;5040774;28;20041;-65
2021/03/29 03:22:35;;;;;;;10.70;3.80;;;;;;;11.44;45.11;101264.50;5040828;28;20025;-66
2021/03/29 03:25:03;;;;;;;6.05;3.30;;;;;;;11.47;44.10;101253.63;5039447;28;20049;-65
2021/03/29 03:27:28;;;;;;;14.20;3.58;;;;;;;11.51;43.92;101270.97;5043961;28;20327;-66
2021/03/29 03:29:54;;;;;;;7.22;3.80;;;;;;;11.63;44.14;101269.06;5039304;28;20044;-66
2021/03/29 03:32:19;;;;;;;9.20;3.70;;;;;;;11.68;43.98;101274.81;5039506;28;20096;-71
2021/03/29 03:34:45;;;;;;;9.02;4.40;;;;;;;11.79;44.14;101280.06;5040247;28;20029;-65
2021/03/29 03:37:17;;;;;;;9.95;4.50;;;;;;;11.78;43.95;101280.22;5038292;28;20028;-71
2021/03/29 03:39:44;;;;;;;13.73;5.15;;;;;;;11.86;44.07;101275.09;5040424;28;20045;-65
2021/03/29 03:42:12;;;;;;;11.13;4.70;;;;;;;12.09;43.01;101283.69;5042176;28;20033;-66
2021/03/29 03:44:39;;;;;;;11.88;5.15;;;;;;;12.07;43.39;101289.13;5040702;28;20291;-66
2021/03/29 03:47:05;;;;;;;13.10;4.60;;;;;;;12.02;43.72;101288.69;5040371;28;20107;-66
2021/03/29 03:49:32;;;;;;;14.18;6.20;;;;;;;12.02;44.14;101290.50;5039729;28;20079;-65
2021/03/29 03:51:58;;;;;;;15.23;6.72;;;;;;;12.08;43.79;101301.44;5040593;28;20026;-71
2021/03/29 03:54:25;;;;;;;11.10;5.63;;;;;;;12.05;43.62;101301.69;5041115;28;20042;-71
2021/03/29 03:56:51;;;;;;;18.67;5.95;;;;;;;12.18;43.85;101295.31;5040676;28;20033;-65
2021/03/29 03:59:17;;;;;;;13.88;5.30;;;;;;;12.21;43.66;101306.50;5039835;28;20093;-70
2021/03/29 04:01:55;;;;;;;9.48;4.47;;;;;;;12.20;43.48;101301.34;5039932;28;20096;-70
2021/03/29 04:04:20;;;;;;;8.88;3.83;;;;;;;12.25;42.64;101304.44;5039136;28;20044;-70
2021/03/29 04:06:46;;;;;;;8.90;3.85;;;;;;;12.22;42.54;101308.19;5041037;28;20328;-65
2021/03/29 04:09:12;;;;;;;11.60;4.10;;;;;;;12.05;42.31;101309.66;5040121;28;20051;-70
2021/03/29 04:11:37;;;;;;;10.15;4.47;;;;;;;12.02;42.14;101301.97;5039627;28;20248;-65
2021/03/29 04:14:03;;;;;;;12.90;5.45;;;;;;;11.84;42.40;101300.91;5039633;28;20018;-66
2021/03/29 04:16:29;;;;;;;16.27;5.50;;;;;;;11.90;42.71;101310.16;5040380;28;20029;-66
2021/03/29 04:18:54;;;;;;;9.77;4.82;;;;;;;11.80;43.03;101315.41;5039370;28;20021;-65
2021/03/29 04:21:20;;;;;;;10.52;4.82;;;;;;;11.86;43.62;101311.41;5040785;28;20312;-65
2021/03/29 04:23:45;;;;;;;23.08;5.15;;;;;;;11.77;43.67;101324.47;5039550;28;20103;-71
2021/03/29 04:26:11;;;;;;;11.30;4.00;;;;;;;11.71;43.20;101319.66;5038944;28;20097;-65
2021/03/29 04:28:36;;;;;;;12.90;4.50;;;;;;;11.79;42.45;101319.88;5042359;28;20205;-66
2021/03/29 04:31:02;;;;;;;14.43;6.05;;;;;;;11.91;42.41;101311.84;5039961;28;20038;-71
2021/03/29 04:33:27;;;;;;;20.77;7.18;;;;;;;11.94;41.82;101306.28;5039620;28;20017;-65
2021/03/29 04:35:52;;;;;;;10.45;4.28;;;;;;;12.04;41.50;101315.13;5045055;28;20359;-65
2021/03/29 04:38:18;;;;;;;9.90;3.90;;;;;;;12.06;41.86;101314.00;5043088;28;20084;-65
2021/03/29 04:40:44;;;;;;;14.23;4.70;;;;;;;12.10;42.07;101318.06;5043990;28;20045;-71
2021/03/29 04:43:10;;;;;;;10.50;3.72;;;;;;;12.12;41.57;101312.63;5043215;28;20044;-66
2021/03/29 04:45:35;;;;;;;16.20;4.43;;;;;;;12.17;41.33;101297.13;5044233;28;20041;-71
2021/03/29 04:48:01;;;;;;;11.85;5.00;;;;;;;12.22;41.36;101313.50;5043823;28;20034;-72
2021/03/29 04:50:26;;;;;;;14.63;5.18;;;;;;;12.31;41.41;101315.34;5043843;28;20029;-71
2021/03/29 04:52:53;;;;;;;15.32;5.80;;;;;;;12.18;41.06;101320.06;5043181;28;20223;-66
2021/03/29 04:55:19;;;;;;;11.52;4.82;;;;;;;12.23;40.63;101317.84;5043885;28;20045;-70
2021/03/29 04:57:45;;;;;;;13.95;5.88;;;;;;;12.33;40.61;101320.53;5043298;28;20030;-71
2021/03/29 05:00:12;;;;;;;18.25;7.32;;;;;;;12.41;40.32;101324.19;5042597;28;20341;-70
2021/03/29 05:02:38;;;;;;;14.07;6.30;;;;;;;12.46;41.73;101324.63;5043554;28;20052;-70
2021/03/29 05:05:05;;;;;;;20.98;6.80;;;;;;;12.67;40.54;101319.25;5042908;28;20369;-70
2021/03/29 05:07:31;;;;;;;13.85;5.22;;;;;;;12.48;41.73;101329.81;5044619;28;20259;-70
2021/03/29 05:09:56;;;;;;;10.98;4.68;;;;;;;12.62;41.69;101316.16;5043460;28;20323;-71
2021/03/29 05:12:24;;;;;;;18.67;6.20;;;;;;;12.78;41.73;101324.44;5042601;28;20025;-65
2021/03/29 05:14:51;;;;;;;24.48;8.02;;;;;;;12.96;41.62;101319.28;5045203;28;20343;-65
2021/03/29 05:17:17;;;;;;;16.00;7.65;;;;;;;12.91;41.06;101321.53;5043559;28;20025;-71
2021/03/29 05:19:43;;;;;;;15.25;6.70;;;;;;;12.99;40.77;101318.16;5042266;28;20083;-66
2021/03/29 05:22:09;;;;;;;12.65;5.60;;;;;;;12.95;40.88;101327.41;5042097;28;20026;-67
2021/03/29 05:24:35;;;;;;;14.48;5.93;;;;;;;13.01;41.31;101319.72;5043060;28;20044;-66
2021/03/29 05:27:01;;;;;;;16.80;6.85;;;;;;;12.88;41.38;101319.13;5042329;28;20100;-71
2021/03/29 05:29:27;;;;;;;18.92;7.35;;;;;;;12.83;41.27;101324.03;5041630;28;20353;-66
2021/03/29 05:31:57;;;;;;;19.55;6.88;;;;;;;12.87;41.32;101321.94;5043487;28;20313;-71
2021/03/29 05:34:23;;;;;;;17.42;6.72;;;;;;;12.96;41.37;101329.06;5042327;28;20100;-70
2021/03/29 05:36:49;;;;;;;21.15;6.90;;;;;;;12.92;40.80;101328.50;5043274;28;20362;-70
2021/03/29 05:39:15;;;;;;;28.50;6.95;;;;;;;13.14;40.60;101335.38;5041958;28;20115;-65
2021/03/29 05:41:42;;;;;;;19.23;5.95;;;;;;;12.96;40.95;101337.06;5043272;28;20033;-71
2021/03/29 05:44:09;;;;;;;17.48;6.25;;;;;;;13.06;40.54;101340.56;5042107;28;20041;-65
2021/03/29 05:46:41;;;;;;;13.50;5.63;;;;;;;12.78;39.41;101337.72;5041435;28;20068;-66
2021/03/29 05:49:07;;;;;;;16.60;5.63;;;;;;;12.87;39.44;101338.72;5041808;28;20056;-72
2021/03/29 05:51:37;;;;;;;14.05;5.43;;;;;;;12.91;39.65;101329.50;5041675;28;20056;-66
2021/03/29 05:54:05;;;;;;;8.32;4.15;;;;;;;12.85;39.67;101348.66;5043265;28;20075;-70
2021/03/29 05:56:31;;;;;;;7.80;4.10;;;;;;;12.73;39.50;101345.28;5042168;28;20029;-71
2021/03/29 05:59:13;;;;;;;11.82;4.20;;;;;;;12.84;39.45;101346.97;5041415;28;20025;-71
2021/03/29 06:01:50;;;;;;;10.73;3.95;;;;;;;12.82;39.61;101340.13;5042238;28;20029;-71
2021/03/29 06:04:36;;;;;;;11.73;4.82;;;;;;;12.71;39.50;101331.28;5042662;28;20430;-66
2021/03/29 06:07:22;;;;;;;10.13;4.13;;;;;;;12.59;40.71;101348.31;5041536;28;20037;-71
2021/03/29 06:09:50;;;;;;;10.50;4.65;;;;;;;12.78;40.16;101352.84;5040969;28;20045;-66
2021/03/29 06:12:18;;;;;;;15.50;4.22;;;;;;;12.86;40.06;101352.16;5043105;28;20476;-70
2021/03/29 06:14:45;;;;;;;14.48;5.00;;;;;;;13.01;40.58;101348.94;5041909;28;20032;-66
2021/03/29 06:17:21;;;;;;;11.57;4.68;;;;;;;13.11;40.24;101351.63;5042280;28;20036;-70
2021/03/29 06:20:00;;;;;;;13.30;5.20;;;;;;;13.79;38.97;101349.78;5041256;28;20041;-71
2021/03/29 06:22:28;;;;;;;9.05;3.88;;;;;;;14.36;37.76;101347.91;5040861;28;20032;-66
2021/03/29 06:24:54;;;;;;;10.77;4.03;;;;;;;14.68;37.77;101352.84;5041780;28;20045;-71
2021/03/29 06:27:21;;;;;;;11.82;3.92;;;;;;;15.12;37.05;101352.97;5042188;28;20333;-66
2021/03/29 06:29:47;;;;;;;22.92;7.72;;;;;;;14.77;35.95;101356.44;5041472;28;20109;-71
2021/03/29 06:32:19;;;;;;;13.18;4.85;;;;;;;14.70;36.13;101353.53;5042318;28;20037;-72
2021/03/29 06:34:48;;;;;;;17.95;5.25;;;;;;;15.00;35.83;101355.84;5041135;28;20079;-70
2021/03/29 06:37:18;;;;;;;11.45;4.78;;;;;;;15.34;34.32;101348.00;5042227;28;20044;-72
2021/03/29 06:39:44;;;;;;;10.23;4.43;;;;;;;15.46;33.88;101347.75;5041814;28;20041;-72
2021/03/29 06:42:09;;;;;;;11.68;5.05;;;;;;;15.77;33.94;101349.06;5041184;28;20037;-66
2021/03/29 06:44:37;;;;;;;13.35;4.85;;;;;;;15.75;33.13;101351.03;5039926;28;20021;-71
2021/03/29 06:47:12;;;;;;;6.75;4.00;;;;;;;16.09;32.36;101347.56;5043326;28;20273;-66
2021/03/29 06:49:47;;;;;;;10.48;5.53;;;;;;;16.14;32.84;101351.44;5049086;28;20322;-66
2021/03/29 06:52:32;;;;;;;16.70;4.55;;;;;;;16.28;31.76;101353.53;5056550;28;20032;-66
2021/03/29 06:55:23;;;;;;;16.38;4.50;;;;;;;16.68;31.42;101357.41;5061273;28;20060;-71
2021/03/29 06:58:08;;;;;;;7.88;3.85;;;;;;;16.75;31.32;101358.44;5043729;28;20251;-66
2021/03/29 07:00:37;;;;;;;12.88;3.58;;;;;;;16.81;30.90;101352.44;5054553;28;21245;-71
2021/03/29 07:03:08;;;;;;;5.80;3.05;;;;;;;16.41;29.57;101350.41;5050812;28;20036;-66
2021/03/29 07:05:35;;;;;;;7.72;3.05;;;;;;;16.12;30.39;101347.25;5051860;28;20031;-68
2021/03/29 07:08:05;;;;;;;11.73;4.00;;;;;;;15.70;31.25;101348.00;5053309;28;20033;-71
2021/03/29 07:10:31;;;;;;;10.27;3.72;;;;;;;15.33;32.09;101340.16;5051989;28;20092;-66
2021/03/29 07:12:58;;;;;;;10.52;3.88;;;;;;;15.07;32.34;101353.44;5051824;28;20033;-66
2021/03/29 07:15:24;;;;;;;15.63;3.00;;;;;;;14.94;30.52;101352.97;5051159;28;20286;-66
2021/03/29 07:17:50;;;;;;;8.50;3.03;;;;;;;14.95;29.75;101354.63;5054301;28;20041;-72
2021/03/29 07:20:23;;;;;;;8.25;2.78;;;;;;;14.93;30.18;101354.78;5051539;28;20083;-71
2021/03/29 07:22:49;;;;;;;12.57;2.95;;;;;;;14.70;31.23;101364.22;5050705;28;20033;-71
2021/03/29 07:25:15;;;;;;;12.25;3.60;;;;;;;14.66;31.31;101358.34;5050802;28;20040;-71
2021/03/29 07:27:49;;;;;;;8.45;3.08;;;;;;;14.96;31.84;101361.66;5051402;28;20031;-66
2021/03/29 07:30:16;;;;;;;6.28;3.15;;;;;;;15.56;31.68;101361.84;5050891;28;20040;-72
2021/03/29 07:32:53;;;;;;;7.28;3.88;;;;;;;16.22;31.06;101356.84;5054074;28;20226;-67
2021/03/29 07:35:19;;;;;;;6.85;3.28;;;;;;;16.64;29.89;101349.81;5052654;28;20583;-72
2021/03/29 07:37:57;;;;;;;9.60;3.60;;;;;;;17.07;29.18;101352.31;5051193;28;20037;-64
2021/03/29 07:40:23;;;;;;;7.43;3.13;;;;;;;17.07;29.21;101346.97;5051549;28;20278;-66
2021/03/29 07:42:54;;;;;;;8.13;3.72;;;;;;;17.43;28.97;101346.66;5050322;28;20045;-64
2021/03/29 07:45:24;;;;;;;9.35;3.90;;;;;;;17.60;29.43;101340.28;5050285;28;20040;-69
2021/03/29 07:47:51;;;;;;;9.98;3.10;;;;;;;17.63;28.21;101342.63;5050709;28;20037;-65
2021/03/29 07:50:40;;;;;;;8.63;3.53;;;;;;;18.00;28.16;101339.44;5050877;28;20033;-65
2021/03/29 07:53:19;;;;;;;8.52;2.53;;;;;;;17.82;26.30;101338.78;5049232;28;20032;-71
2021/03/29 07:55:52;;;;;;;5.57;2.20;;;;;;;17.81;26.67;101335.28;5051569;28;20056;-65
2021/03/29 07:58:22;;;;;;;6.88;2.63;;;;;;;18.18;25.57;101325.78;5051605;28;20096;-70
2021/03/29 08:01:04;;;;;;;14.50;4.38;;;;;;;18.43;26.17;101329.22;5052879;28;20086;-64
2021/03/29 08:03:39;;;;;;;8.43;3.28;;;;;;;18.23;26.17;101325.28;5050672;28;20067;-64
2021/03/29 08:06:07;;;;;;;9.55;2.40;;;;;;;17.86;26.22;101330.25;5050127;28;20048;-70
2021/03/29 08:08:39;;;;;;;8.23;2.60;;;;;;;18.14;25.91;101332.50;5051053;28;20139;-65
2021/03/29 08:11:14;;;;;;;7.15;3.17;;;;;;;18.23;26.39;101326.13;5055221;28;20037;-70
2021/03/29 08:13:52;;;;;;;7.88;2.65;;;;;;;18.32;25.51;101322.38;5059234;28;20223;-65
2021/03/29 08:16:28;;;;;;;8.68;3.00;;;;;;;18.32;25.31;101326.91;5063909;28;20033;-65
2021/03/29 08:19:24;;;;;;;15.20;3.88;;;;;;;18.42;26.03;101330.22;5057348;28;20239;-65
2021/03/29 08:22:14;;;;;;;11.00;2.92;;;;;;;18.35;25.30;101329.25;5053233;28;20036;-71
2021/03/29 08:24:40;;;;;;;6.65;2.63;;;;;;;18.42;25.29;101324.88;5055771;28;20037;-64
2021/03/29 08:27:27;;;;;;;9.15;3.45;;;;;;;18.40;26.15;101321.53;5056460;28;20317;-65
2021/03/29 08:29:54;;;;;;;7.38;2.70;;;;;;;18.47;25.35;101314.44;5054848;28;20409;-65
2021/03/29 08:32:33;;;;;;;11.60;3.15;;;;;;;18.63;26.23;101321.59;5054830;28;20373;-64
2021/03/29 08:35:03;;;;;;;6.93;3.17;;;;;;;18.77;25.70;101320.88;5053661;28;20107;-66
2021/03/29 08:37:37;;;;;;;5.78;3.25;;;;;;;18.91;26.08;101312.06;5053515;28;20040;-64
2021/03/29 08:40:24;;;;;;;10.07;3.35;;;;;;;19.20;26.07;101313.19;5054539;28;20655;-69
2021/03/29 08:42:55;;;;;;;7.07;3.50;;;;;;;19.28;26.09;101303.22;5053974;28;20026;-71
2021/03/29 08:45:24;;;;;;;4.85;3.20;;;;;;;19.32;25.67;101304.53;5053717;28;20068;-71
2021/03/29 08:47:53;;;;;;;9.07;3.38;;;;;;;19.03;24.89;101305.25;5052130;28;20025;-66
2021/03/29 08:50:22;;;;;;;6.65;3.10;;;;;;;19.25;25.86;101292.00;5057686;28;20037;-70
2021/03/29 08:52:54;;;;;;;8.27;3.63;;;;;;;19.42;25.43;101298.91;5054483;28;20041;-70
2021/03/29 08:55:29;;;;;;;8.05;2.78;;;;;;;19.58;24.49;101303.31;5053622;28;20033;-65
2021/03/29 08:57:55;;;;;;;5.50;2.75;;;;;;;19.47;23.66;101288.44;5059956;28;20016;-65
2021/03/29 09:00:23;;;;;;;6.68;2.78;;;;;;;19.35;22.54;101292.59;5061826;28;20103;-71
2021/03/29 09:02:51;;;;;;;5.18;2.60;;;;;;;19.34;23.11;101286.38;5053962;28;20092;-70
2021/03/29 09:05:19;;;;;;;15.50;2.95;;;;;;;19.01;23.43;101285.81;5054060;28;20311;-70
2021/03/29 09:07:51;;;;;;;8.35;2.03;;;;;;;19.14;22.73;101288.72;5053228;28;20075;-70
2021/03/29 09:10:25;;;;;;;5.18;1.90;;;;;;;19.22;22.57;101287.00;5053120;28;20042;-70
2021/03/29 09:13:06;;;;;;;8.93;2.42;;;;;;;18.73;22.95;101276.63;5052460;28;20113;-70
2021/03/29 09:15:37;;;;;;;8.10;2.28;;;;;;;18.85;23.18;101285.09;5054090;28;20288;-71
2021/03/29 09:18:05;;;;;;;12.40;2.33;;;;;;;18.50;22.90;101279.22;5053365;28;20375;-71
2021/03/29 09:20:36;;;;;;;9.70;3.15;;;;;;;18.49;23.42;101274.88;5053243;28;20025;-70
2021/03/29 09:23:02;;;;;;;6.50;2.35;;;;;;;18.94;23.10;101275.97;5054022;28;20028;-70
2021/03/29 09:25:38;;;;;;;8.15;2.65;;;;;;;19.25;23.87;101254.41;5053735;28;20041;-70
2021/03/29 09:28:10;;;;;;;5.43;2.30;;;;;;;18.87;23.12;101266.97;5059877;28;20025;-71
2021/03/29 09:30:36;;;;;;;8.07;2.67;;;;;;;18.74;23.76;101263.03;5061660;28;20223;-71
2021/03/29 09:33:02;;;;;;;6.35;1.90;;;;;;;18.85;23.54;101253.72;5054737;28;20029;-70
2021/03/29 09:35:28;;;;;;;5.47;2.30;;;;;;;18.96;24.02;101249.78;5053545;28;20045;-72
2021/03/29 09:37:53;;;;;;;7.53;2.65;;;;;;;18.95;23.33;101248.13;5053791;28;20032;-70
2021/03/29 09:40:19;;;;;;;5.13;2.10;;;;;;;19.12;23.91;101237.06;5054180;28;20036;-71
2021/03/29 09:42:47;;;;;;;7.50;2.13;;;;;;;19.00;23.34;101243.88;5052789;28;20036;-71
2021/03/29 09:45:22;;;;;;;11.20;2.85;;;;;;;19.05;24.09;101230.75;5054302;28;20079;-71
2021/03/29 09:48:09;;;;;;;8.65;3.97;;;;;;;19.14;23.68;101243.09;5052565;28;20052;-71
2021/03/29 09:50:43;;;;;;;6.60;3.50;;;;;;;18.74;23.24;101238.03;5053482;28;20048;-70
2021/03/29 09:53:23;;;;;;;12.30;4.20;;;;;;;18.73;23.67;101225.66;5051112;28;20033;-70
2021/03/29 09:55:48;;;;;;;7.55;3.90;;;;;;;18.87;23.73;101224.88;5058896;28;20036;-70
2021/03/29 09:58:25;;;;;;;7.32;2.20;;;;;;;18.87;22.86;101222.19;5061543;28;20029;-70
2021/03/29 10:00:53;;;;;;;7.00;2.05;;;;;;;19.18;23.40;101208.66;5055576;28;20067;-71
2021/03/29 10:03:19;;;;;;;5.93;2.00;;;;;;;19.26;23.00;101205.06;5057915;28;20017;-71
2021/03/29 10:05:46;;;;;;;11.45;2.30;;;;;;;19.16;22.79;101199.94;5059473;28;20045;-70
2021/03/29 10:08:22;;;;;;;13.98;2.30;;;;;;;18.89;22.67;101206.72;5051892;28;20056;-70
2021/03/29 10:11:02;;;;;;;3.92;1.77;;;;;;;18.83;23.06;101204.78;5058409;28;20051;-71
2021/03/29 10:13:41;;;;;;;6.47;1.73;;;;;;;18.98;23.59;101202.13;5059647;28;20035;-72
2021/03/29 10:16:23;;;;;;;3.20;1.38;;;;;;;19.03;24.18;101199.72;5059755;28;20056;-71
2021/03/29 10:19:10;;;;;;;5.45;1.90;;;;;;;19.10;23.03;101196.13;5059992;28;20223;-71
2021/03/29 10:22:01;;;;;;;5.55;2.05;;;;;;;18.98;22.82;101194.91;5051614;28;20807;-71
2021/03/29 10:24:26;;;;;;;4.32;1.70;;;;;;;18.99;22.51;101190.38;5055169;28;20037;-71
2021/03/29 10:27:00;;;;;;;6.15;1.88;;;;;;;19.13;23.18;101184.19;5052617;28;20072;-71
2021/03/29 10:29:37;;;;;;;6.93;2.10;;;;;;;19.09;23.33;101178.34;5057466;28;20029;-71
2021/03/29 10:32:04;;;;;;;4.43;1.80;;;;;;;18.79;23.78;101164.03;5060215;28;20091;-71
2021/03/29 10:34:30;;;;;;;8.30;2.10;;;;;;;19.00;24.08;101184.81;5053794;28;20025;-66
2021/03/29 10:36:55;;;;;;;14.70;1.75;;;;;;;19.07;23.62;101182.25;5051051;28;20021;-65
2021/03/29 10:39:21;;;;;;;11.88;2.17;;;;;;;19.03;22.96;101170.19;5052248;28;20039;-71
2021/03/29 10:41:46;;;;;;;5.40;1.60;;;;;;;19.05;23.52;101169.00;5054940;28;20043;-71
2021/03/29 10:44:12;;;;;;;9.93;2.47;;;;;;;19.19;23.75;101167.34;5060474;28;20055;-71
2021/03/29 10:46:37;;;;;;;6.00;1.70;;;;;;;19.37;22.24;101167.81;5060467;28;20028;-65
2021/03/29 10:49:03;;;;;;;2.00;1.33;;;;;;;19.40;21.80;101172.00;5059936;28;20033;-67
2021/03/29 10:51:28;;;;;;;7.22;1.73;;;;;;;19.17;21.68;101164.03;5059707;28;20025;-71
2021/03/29 10:53:54;;;;;;;5.57;1.73;;;;;;;19.21;22.09;101154.56;5059070;28;20028;-66
2021/03/29 10:56:19;;;;;;;5.28;1.80;;;;;;;19.21;22.09;101157.25;5060987;28;20039;-66
2021/03/29 10:58:44;;;;;;;3.50;1.77;;;;;;;19.02;21.99;101145.22;5058486;28;20379;-66
2021/03/29 11:01:10;;;;;;;4.95;1.58;;;;;;;19.04;21.29;101145.84;5060504;28;20032;-71
2021/03/29 11:03:35;;;;;;;4.88;1.40;;;;;;;19.21;22.38;101143.00;5058815;28;20035;-67
2021/03/29 11:06:01;;;;;;;7.75;1.58;;;;;;;19.06;22.04;101130.41;5061364;28;20029;-66
2021/03/29 11:08:26;;;;;;;7.60;1.65;;;;;;;19.24;22.73;101126.53;5060276;28;20036;-71
2021/03/29 11:10:52;;;;;;;4.35;1.60;;;;;;;19.20;22.71;101127.91;5060245;28;20078;-66
2021/03/29 11:13:17;;;;;;;6.72;2.25;;;;;;;19.13;22.05;101119.75;5059472;28;20037;-66
2021/03/29 11:15:43;;;;;;;8.95;1.80;;;;;;;19.13;21.73;101114.38;5061297;28;20044;-67
2021/03/29 11:18:08;;;;;;;6.85;2.15;;;;;;;18.69;22.46;101119.66;5060382;28;20037;-71
2021/03/29 11:20:35;;;;;;;10.55;1.63;;;;;;;18.75;22.44;101113.59;5060709;28;20033;-71
2021/03/29 11:23:00;;;;;;;4.63;1.77;;;;;;;18.72;21.63;101109.41;5060209;28;20029;-66
2021/03/29 11:25:26;;;;;;;4.38;1.50;;;;;;;18.71;22.03;101099.69;5061059;28;20044;-72
2021/03/29 11:27:52;;;;;;;9.27;3.08;;;;;;;18.64;21.70;101104.13;5059155;28;20029;-72
2021/03/29 11:30:18;;;;;;;3.22;1.60;;;;;;;18.75;22.37;101100.19;5061128;28;20056;-66
2021/03/29 11:32:44;;;;;;;4.30;1.80;;;;;;;18.55;22.73;101099.81;5059774;28;20033;-66